createdAt,value
2023-01-09T00:02:40.792Z,99888.41
2023-01-09T00:05:42.623Z,99886.63
2023-01-09T00:08:44.359Z,99885.06
2023-01-09T00:11:46.078Z,99883.75
2023-01-09T00:14:47.740Z,99880.97
2023-01-09T00:17:49.996Z,99886.97
2023-01-09T00:20:51.831Z,99886.84
2023-01-09T00:23:54.414Z,99881.78
2023-01-09T00:26:56.055Z,99881.53
2023-01-09T00:29:57.780Z,99886.91
2023-01-09T00:32:59.791Z,99885.97
2023-01-09T00:36:02.393Z,99884.72
2023-01-09T00:39:05.063Z,99888.00
2023-01-09T00:42:10.174Z,99877.50
2023-01-09T00:45:20.256Z,99886.00
2023-01-09T00:48:27.138Z,99885.63
2023-01-09T00:51:29.008Z,99881.16
2023-01-09T00:54:31.988Z,99881.94
2023-01-09T00:57:33.706Z,99889.50
2023-01-09T01:00:35.414Z,99877.97
2023-01-09T01:03:37.117Z,99881.06
2023-01-09T01:06:57.565Z,99879.00
2023-01-09T01:09:59.230Z,99871.16
2023-01-09T01:13:00.929Z,99862.44
2023-01-09T01:16:07.913Z,99868.25
2023-01-09T01:19:09.568Z,99855.09
2023-01-09T01:22:11.435Z,99854.34
2023-01-09T01:25:17.002Z,99844.84
2023-01-09T01:28:19.338Z,99848.09
2023-01-09T01:31:21.059Z,99848.16
2023-01-09T01:34:22.774Z,99843.53
2023-01-09T01:37:24.755Z,99834.75
2023-01-09T01:40:26.666Z,99820.72
2023-01-09T01:43:29.386Z,99816.75
2023-01-09T01:46:33.321Z,99810.44
2023-01-09T01:49:35.019Z,99814.66
2023-01-09T01:52:37.821Z,99804.25
2023-01-09T01:55:45.023Z,99803.28
2023-01-09T01:59:12.081Z,99803.28
2023-01-09T02:02:13.815Z,99798.50
2023-01-09T02:05:16.024Z,99790.81
2023-01-09T02:08:18.332Z,99789.63
2023-01-09T02:11:20.773Z,99783.44
2023-01-09T02:14:27.922Z,99783.53
2023-01-09T02:17:32.357Z,99786.25
2023-01-09T02:20:52.318Z,99777.53
2023-01-09T02:24:03.320Z,99772.78
2023-01-09T02:27:45.260Z,99765.91
2023-01-09T02:30:51.945Z,99767.69
2023-01-09T02:34:12.026Z,99772.06
2023-01-09T02:37:41.851Z,99778.22
2023-01-09T02:41:24.044Z,99764.50
2023-01-09T02:44:30.561Z,99762.22
2023-01-09T02:47:37.069Z,99758.50
2023-01-09T02:50:51.249Z,99755.03
2023-01-09T02:54:05.063Z,99747.00
2023-01-09T02:57:37.219Z,99750.34
2023-01-09T03:00:47.920Z,99744.94
2023-01-09T03:03:58.335Z,99750.94
2023-01-09T03:07:13.872Z,99744.75
2023-01-09T03:10:21.292Z,99752.41
2023-01-09T03:13:26.599Z,99731.53
2023-01-09T03:16:34.200Z,99738.53
2023-01-09T03:19:37.419Z,99741.91
2023-01-09T03:22:40.691Z,99736.56
2023-01-09T03:25:42.401Z,99727.06
2023-01-09T03:28:44.803Z,99730.44
2023-01-09T03:31:46.491Z,99730.19
2023-01-09T03:34:48.181Z,99717.25
2023-01-09T03:37:51.724Z,99719.72
2023-01-09T03:40:53.423Z,99708.59
2023-01-09T03:43:55.129Z,99717.06
2023-01-09T03:46:56.782Z,99708.94
2023-01-09T03:49:58.471Z,99706.94
2023-01-09T03:53:00.172Z,99697.44
2023-01-09T03:56:01.885Z,99692.88
2023-01-09T03:59:03.574Z,99690.38
2023-01-09T04:02:05.388Z,99685.84
2023-01-09T04:05:07.940Z,99685.09
2023-01-09T04:08:09.677Z,99683.28
2023-01-09T04:11:11.397Z,99684.12
2023-01-09T04:14:13.077Z,99682.72
2023-01-09T04:17:16.745Z,99683.50
2023-01-09T04:20:18.941Z,99686.91
2023-01-09T04:23:21.034Z,99686.69
2023-01-09T04:26:22.730Z,99684.84
2023-01-09T04:29:27.342Z,99680.69
2023-01-09T04:32:29.066Z,99681.53
2023-01-09T04:35:30.737Z,99672.84
2023-01-09T04:38:32.546Z,99671.81
2023-01-09T04:41:49.394Z,99669.25
2023-01-09T04:44:54.234Z,99669.25
2023-01-09T04:47:55.917Z,99666.69
2023-01-09T04:50:57.571Z,99657.97
2023-01-09T04:53:59.306Z,99663.28
2023-01-09T04:57:01.033Z,99668.38
2023-01-09T05:00:05.237Z,99665.78
2023-01-09T05:03:06.902Z,99673.41
2023-01-09T05:06:08.576Z,99668.25
2023-01-09T05:09:10.258Z,99671.72
2023-01-09T05:12:11.945Z,99660.19
2023-01-09T05:15:13.664Z,99662.97
2023-01-09T05:18:15.809Z,99644.69
2023-01-09T05:21:17.475Z,99656.88
2023-01-09T05:24:19.202Z,99653.31
2023-01-09T05:27:20.880Z,99652.63
2023-01-09T05:30:22.600Z,99656.78
2023-01-09T05:33:24.361Z,99654.22
2023-01-09T05:36:26.540Z,99651.81
2023-01-09T05:39:28.275Z,99643.75
2023-01-09T05:42:29.944Z,99643.84
2023-01-09T05:45:31.715Z,99648.91
2023-01-09T05:48:33.446Z,99650.44
2023-01-09T05:51:35.217Z,99646.03
2023-01-09T05:54:36.887Z,99645.91
2023-01-09T05:57:38.565Z,99644.34
2023-01-09T06:00:40.227Z,99660.97
2023-01-09T06:03:42.466Z,99675.28
2023-01-09T06:06:44.122Z,99671.38
2023-01-09T06:09:45.763Z,99672.78
2023-01-09T06:16:08.949Z,99669.28
2023-01-09T06:19:10.815Z,99667.97
2023-01-09T06:22:12.479Z,99660.63
2023-01-09T06:25:14.147Z,99659.19
2023-01-09T06:28:15.841Z,99662.09
2023-01-09T06:31:17.716Z,99657.66
2023-01-09T06:34:19.500Z,99651.66
2023-01-09T06:37:21.164Z,99653.44
2023-01-09T06:40:22.820Z,99651.00
2023-01-09T06:43:24.503Z,99644.22
2023-01-09T06:46:26.382Z,99647.69
2023-01-09T06:49:28.030Z,99632.88
2023-01-09T06:52:29.682Z,99630.41
2023-01-09T06:55:31.391Z,99626.75
2023-01-09T06:58:33.066Z,99623.28
2023-01-09T07:01:34.883Z,99613.88
2023-01-09T07:04:36.708Z,99632.88
2023-01-09T07:07:41.467Z,99645.81
2023-01-09T07:10:43.837Z,99648.34
2023-01-09T07:13:45.500Z,99646.56
2023-01-09T07:16:47.194Z,99651.09
2023-01-09T07:19:48.863Z,99635.66
2023-01-09T07:22:50.530Z,99629.41
2023-01-09T07:25:52.545Z,99631.78
2023-01-09T07:28:54.714Z,99639.56
2023-01-09T07:31:56.894Z,99638.75
2023-01-09T07:34:58.951Z,99646.50
2023-01-09T07:38:00.631Z,99649.97
2023-01-09T07:41:02.273Z,99653.75
2023-01-09T07:44:04.075Z,99656.34
2023-01-09T07:47:05.774Z,99656.19
2023-01-09T07:50:08.951Z,99642.44
2023-01-09T07:53:10.634Z,99656.19
2023-01-09T07:56:12.373Z,99646.69
2023-01-09T07:59:14.352Z,99655.03
2023-01-09T08:02:18.191Z,99663.38
2023-01-09T08:05:20.677Z,99673.72
2023-01-09T08:08:23.284Z,99669.66
2023-01-09T08:11:25.491Z,99667.41
2023-01-09T08:14:27.220Z,99658.44
2023-01-09T08:17:28.852Z,99656.22
2023-01-09T08:20:30.597Z,99654.66
2023-01-09T08:23:32.582Z,99648.66
2023-01-09T08:26:34.239Z,99666.69
2023-01-09T08:29:35.906Z,99664.25
2023-01-09T08:32:37.889Z,99668.03
2023-01-09T08:35:39.551Z,99664.44
2023-01-09T08:38:41.212Z,99655.44
2023-01-09T08:42:01.373Z,99652.72
2023-01-09T08:45:21.663Z,99649.94
2023-01-09T08:48:23.396Z,99651.91
2023-01-09T08:51:25.051Z,99661.41
2023-01-09T08:54:26.774Z,99669.12
2023-01-09T08:57:28.484Z,99658.59
2023-01-09T09:00:30.208Z,99662.47
2023-01-09T09:03:31.887Z,99665.13
2023-01-09T09:06:34.489Z,99667.84
2023-01-09T09:09:36.135Z,99667.63
2023-01-09T09:12:37.802Z,99668.53
2023-01-09T09:15:39.510Z,99667.84
2023-01-09T09:18:41.177Z,99659.56
2023-01-09T09:21:42.873Z,99657.06
2023-01-09T09:24:44.573Z,99662.53
2023-01-09T09:27:46.595Z,99652.22
2023-01-09T09:30:48.278Z,99641.34
2023-01-09T09:33:50.054Z,99639.34
2023-01-09T09:36:51.892Z,99634.84
2023-01-09T09:39:53.690Z,99630.44
2023-01-09T09:43:29.088Z,99621.69
2023-01-09T09:46:41.917Z,99613.91
2023-01-09T09:50:02.082Z,99609.09
2023-01-09T09:53:11.673Z,99590.78
2023-01-09T09:56:17.098Z,99579.03
2023-01-09T09:59:26.731Z,99566.81
2023-01-09T10:02:57.250Z,99560.69
2023-01-09T10:06:00.556Z,99556.47
2023-01-09T10:09:28.952Z,99545.44
2023-01-09T10:12:32.112Z,99528.41
2023-01-09T10:15:41.876Z,99529.94
2023-01-09T10:18:49.275Z,99527.78
2023-01-09T10:21:56.815Z,99527.13
2023-01-09T10:25:01.437Z,99517.84
2023-01-09T10:28:40.541Z,99500.38
2023-01-09T10:31:54.378Z,99496.28
2023-01-09T10:35:14.143Z,99480.25
2023-01-09T10:38:25.620Z,99492.03
2023-01-09T10:42:06.443Z,99522.06
2023-01-09T10:45:17.900Z,99521.47
2023-01-09T10:48:44.196Z,99507.97
2023-01-09T10:52:02.495Z,99481.84
2023-01-09T10:55:17.155Z,99496.28
2023-01-09T10:58:22.003Z,99499.00
2023-01-09T11:01:31.032Z,99495.06
2023-01-09T11:04:36.255Z,99490.50
2023-01-09T11:07:42.123Z,99487.47
2023-01-09T11:10:47.377Z,99493.00
2023-01-09T11:14:04.736Z,99488.75
2023-01-09T11:17:06.435Z,99488.34
2023-01-09T11:20:23.409Z,99483.06
2023-01-09T11:23:34.254Z,99475.97
2023-01-09T11:26:35.897Z,99469.75
2023-01-09T11:29:37.836Z,99462.78
2023-01-09T11:32:39.691Z,99446.31
2023-01-09T11:35:51.172Z,99448.84
2023-01-09T11:38:55.807Z,99445.53
2023-01-09T11:42:00.130Z,99442.91
2023-01-09T11:45:01.865Z,99449.00
2023-01-09T11:48:16.701Z,99440.22
2023-01-09T11:51:27.034Z,99434.03
2023-01-09T11:54:32.500Z,99431.34
2023-01-09T11:57:34.682Z,99430.16
2023-01-09T12:00:51.596Z,99426.34
2023-01-09T12:03:53.184Z,99426.94
2023-01-09T12:07:00.783Z,99421.06
2023-01-09T12:10:05.373Z,99420.31
2023-01-09T12:13:15.790Z,99411.97
2023-01-09T12:16:39.343Z,99404.03
2023-01-09T12:19:59.516Z,99411.09
2023-01-09T12:23:13.131Z,99407.22
2023-01-09T12:26:36.546Z,99410.38
2023-01-09T12:29:59.535Z,99420.91
2023-01-09T12:33:12.093Z,99423.81
2023-01-09T12:36:35.562Z,99427.44
2023-01-09T12:40:04.840Z,99436.25
2023-01-09T12:43:51.151Z,99422.63
2023-01-09T12:47:15.894Z,99417.50
2023-01-09T12:50:30.892Z,99406.34
2023-01-09T12:53:47.833Z,99404.53
2023-01-09T12:57:04.129Z,99399.81
2023-01-09T13:00:30.109Z,99389.84
2023-01-09T13:03:39.037Z,99384.88
2023-01-09T13:06:49.211Z,99389.53
2023-01-09T13:10:21.135Z,99387.19
2023-01-09T13:13:39.562Z,99385.25
2023-01-09T13:16:46.214Z,99393.34
2023-01-09T13:19:48.289Z,99379.78
2023-01-09T13:22:52.429Z,99381.75
2023-01-09T13:25:58.238Z,99375.44
2023-01-09T13:29:08.798Z,99376.53
2023-01-09T13:32:29.139Z,99382.41
2023-01-09T13:35:30.798Z,99369.25
2023-01-09T13:38:35.234Z,99367.75
2023-01-09T13:42:06.957Z,99373.47
2023-01-09T13:45:29.633Z,99384.19
2023-01-09T13:48:41.459Z,99381.59
2023-01-09T13:51:43.037Z,99382.97
2023-01-09T13:54:59.991Z,99390.75
2023-01-09T13:58:04.546Z,99380.53
2023-01-09T14:01:24.578Z,99389.97
2023-01-09T14:04:41.443Z,99388.53
2023-01-09T14:07:45.777Z,99388.44
2023-01-09T14:10:53.733Z,99384.66
2023-01-09T14:14:02.976Z,99374.06
2023-01-09T14:17:17.869Z,99365.34
2023-01-09T14:20:36.552Z,99363.28
2023-01-09T14:24:04.413Z,99363.16
2023-01-09T14:27:46.535Z,99369.97
2023-01-09T14:30:53.873Z,99356.81
2023-01-09T14:34:30.971Z,99354.13
2023-01-09T14:37:37.119Z,99344.69
2023-01-09T14:40:47.580Z,99337.75
2023-01-09T14:44:06.459Z,99326.56
2023-01-09T14:47:17.615Z,99317.75
2023-01-09T14:50:28.005Z,99309.03
2023-01-09T14:53:31.779Z,99322.94
2023-01-09T14:56:34.943Z,99333.19
2023-01-09T14:59:36.576Z,99343.69
2023-01-09T15:02:39.840Z,99339.34
2023-01-09T15:05:45.165Z,99338.63
2023-01-09T15:08:51.225Z,99338.78
2023-01-09T15:11:56.880Z,99330.44
2023-01-09T15:15:01.392Z,99331.94
2023-01-09T15:18:08.095Z,99322.31
2023-01-09T15:21:24.900Z,99323.09
2023-01-09T15:24:29.735Z,99328.91
2023-01-09T15:27:31.427Z,99324.41
2023-01-09T15:30:35.299Z,99320.03
2023-01-09T15:33:39.800Z,99304.47
2023-01-09T15:36:41.542Z,99303.44
2023-01-09T15:39:43.239Z,99296.50
2023-01-09T15:43:01.139Z,99299.87
2023-01-09T15:46:03.313Z,99293.78
2023-01-09T15:49:05.191Z,99294.53
2023-01-09T15:52:11.966Z,99295.41
2023-01-09T15:55:37.124Z,99301.41
2023-01-09T15:58:41.234Z,99297.66
2023-01-09T16:01:44.879Z,99292.28
2023-01-09T16:04:47.576Z,99298.31
2023-01-09T16:07:50.925Z,99302.47
2023-01-09T16:10:56.307Z,99304.47
2023-01-09T16:14:10.309Z,99305.41
2023-01-09T16:17:17.828Z,99299.03
2023-01-09T16:20:25.785Z,99294.66
2023-01-09T16:23:35.774Z,99301.53
2023-01-09T16:26:37.576Z,99287.97
2023-01-09T16:29:46.159Z,99289.31
2023-01-09T16:32:51.501Z,99295.13
2023-01-09T16:35:53.838Z,99295.75
2023-01-09T16:38:57.204Z,99293.13
2023-01-09T16:42:17.858Z,99297.56
2023-01-09T16:45:20.909Z,99295.09
2023-01-09T16:48:22.549Z,99292.50
2023-01-09T16:51:25.747Z,99288.06
2023-01-09T16:54:27.402Z,99294.56
2023-01-09T16:57:30.410Z,99278.72
2023-01-09T17:00:32.147Z,99280.84
2023-01-09T17:03:33.918Z,99280.22
2023-01-09T17:06:35.823Z,99287.19
2023-01-09T17:09:39.004Z,99287.44
2023-01-09T17:12:42.736Z,99282.91
2023-01-09T17:15:45.665Z,99279.50
2023-01-09T17:18:47.419Z,99285.03
2023-01-09T17:21:49.205Z,99274.53
2023-01-09T17:25:26.004Z,99281.03
2023-01-09T17:28:35.829Z,99267.44
2023-01-09T17:31:38.782Z,99270.22
2023-01-09T17:34:40.571Z,99269.41
2023-01-09T17:37:42.765Z,99265.75
2023-01-09T17:40:45.393Z,99270.47
2023-01-09T17:43:47.108Z,99258.66
2023-01-09T17:46:48.809Z,99264.25
2023-01-09T17:49:50.773Z,99263.88
2023-01-09T17:52:52.407Z,99260.75
2023-01-09T17:55:54.082Z,99256.81
2023-01-09T17:58:56.247Z,99266.41
2023-01-09T18:01:58.076Z,99255.94
2023-01-09T18:05:00.229Z,99257.47
2023-01-09T18:08:02.317Z,99265.88
2023-01-09T18:11:12.115Z,99262.97
2023-01-09T18:14:14.111Z,99261.75
2023-01-09T18:17:16.043Z,99263.59
2023-01-09T18:20:18.691Z,99265.88
2023-01-09T18:23:21.588Z,99266.75
2023-01-09T18:26:24.896Z,99256.09
2023-01-09T18:29:26.675Z,99258.53
2023-01-09T18:32:28.531Z,99257.84
2023-01-09T18:35:32.881Z,99263.91
2023-01-09T18:38:34.706Z,99249.59
2023-01-09T18:41:36.820Z,99262.47
2023-01-09T18:44:38.920Z,99258.25
2023-01-09T18:47:40.741Z,99254.16
2023-01-09T18:50:42.872Z,99251.66
2023-01-09T18:53:45.332Z,99253.13
2023-01-09T18:56:47.075Z,99247.09
2023-01-09T18:59:49.296Z,99250.25
2023-01-09T19:02:51.127Z,99245.03
2023-01-09T19:05:54.238Z,99244.16
2023-01-09T19:08:57.659Z,99248.25
2023-01-09T19:12:00.693Z,99239.72
2023-01-09T19:15:02.591Z,99239.25
2023-01-09T19:18:04.652Z,99232.59
2023-01-09T19:21:15.566Z,99225.16
2023-01-09T19:24:20.366Z,99228.31
2023-01-09T19:27:23.057Z,99226.50
2023-01-09T19:30:24.855Z,99221.25
2023-01-09T19:33:27.275Z,99223.47
2023-01-09T19:36:29.198Z,99217.22
2023-01-09T19:39:33.886Z,99216.44
2023-01-09T19:42:35.669Z,99213.03
2023-01-09T19:45:40.452Z,99206.16
2023-01-09T19:48:45.377Z,99208.84
2023-01-09T19:51:47.460Z,99198.44
2023-01-09T19:54:49.403Z,99196.69
2023-01-09T19:57:52.941Z,99201.91
2023-01-09T20:00:55.290Z,99191.44
2023-01-09T20:04:02.754Z,99194.66
2023-01-09T20:07:05.198Z,99184.59
2023-01-09T20:10:07.600Z,99185.28
2023-01-09T20:13:09.792Z,99188.84
2023-01-09T20:16:16.356Z,99187.97
2023-01-09T20:19:18.737Z,99185.22
2023-01-09T20:22:21.194Z,99181.72
2023-01-09T20:25:23.596Z,99181.72
2023-01-09T20:28:27.838Z,99173.97
2023-01-09T20:31:33.780Z,99178.37
2023-01-09T20:34:35.546Z,99171.41
2023-01-09T20:37:40.122Z,99171.69
2023-01-09T20:40:45.232Z,99167.91
2023-01-09T20:43:47.226Z,99168.94
2023-01-09T20:46:49.439Z,99161.06
2023-01-09T20:49:51.580Z,99154.03
2023-01-09T20:52:53.648Z,99152.50
2023-01-09T20:56:03.982Z,99148.94
2023-01-09T20:59:08.681Z,99153.22
2023-01-09T21:02:14.646Z,99157.56
2023-01-09T21:05:16.371Z,99151.62
2023-01-09T21:08:18.100Z,99154.28
2023-01-09T21:11:21.851Z,99146.63
2023-01-09T21:14:23.488Z,99146.56
2023-01-09T21:17:25.195Z,99135.41
2023-01-09T21:20:26.866Z,99130.25
2023-01-09T21:23:28.515Z,99134.63
2023-01-09T21:26:30.776Z,99124.37
2023-01-09T21:29:32.585Z,99125.41
2023-01-09T21:32:34.382Z,99126.34
2023-01-09T21:35:36.387Z,99126.25
2023-01-09T21:38:38.671Z,99133.31
2023-01-09T21:41:59.346Z,99126.41
2023-01-09T21:45:19.750Z,99129.72
2023-01-09T21:48:23.647Z,99124.16
2023-01-09T21:51:25.637Z,99128.97
2023-01-09T21:54:27.346Z,99124.78
2023-01-09T21:57:28.972Z,99126.53
2023-01-09T22:00:31.041Z,99127.38
2023-01-09T22:03:32.737Z,99118.75
2023-01-09T22:06:35.275Z,99117.03
2023-01-09T22:09:37.599Z,99118.09
2023-01-09T22:12:39.403Z,99115.56
2023-01-09T22:15:41.564Z,99116.25
2023-01-09T22:18:43.299Z,99112.16
2023-01-09T22:21:45.781Z,99112.06
2023-01-09T22:24:47.646Z,99109.47
2023-01-09T22:27:49.364Z,99102.72
2023-01-09T22:30:51.055Z,99104.38
2023-01-09T22:33:54.277Z,99101.81
2023-01-09T22:36:55.937Z,99099.16
2023-01-09T22:39:57.650Z,99096.69
2023-01-09T22:42:59.784Z,99099.31
2023-01-09T22:46:03.079Z,99090.84
2023-01-09T22:49:04.876Z,99092.69
2023-01-09T22:52:06.540Z,99095.13
2023-01-09T22:55:09.420Z,99089.03
2023-01-09T22:58:11.089Z,99095.19
2023-01-09T23:01:13.300Z,99089.78
2023-01-09T23:04:16.033Z,99087.28
2023-01-09T23:07:17.703Z,99090.84
2023-01-09T23:10:19.448Z,99084.78
2023-01-09T23:13:21.133Z,99082.97
2023-01-09T23:16:22.835Z,99085.59
2023-01-09T23:19:24.575Z,99077.91
2023-01-09T23:22:26.291Z,99075.25
2023-01-09T23:25:28.156Z,99076.28
2023-01-09T23:28:30.611Z,99079.69
2023-01-09T23:31:34.436Z,99086.56
2023-01-09T23:34:36.078Z,99081.47
2023-01-09T23:37:37.932Z,99078.97
2023-01-09T23:40:44.172Z,99088.28
2023-01-09T23:43:46.031Z,99084.94
2023-01-09T23:46:47.754Z,99085.91
2023-01-09T23:49:49.419Z,99079.84
2023-01-09T23:52:51.087Z,99073.59
2023-01-09T23:55:56.851Z,99080.41
2023-01-09T23:58:58.562Z,99073.44
